Time,TemperatureF,DewpointF,PressureIn,WindDirection,WindDirectionDegrees,WindSpeedMPH,WindSpeedGustMPH,Humidity,HourlyPrecipIn,Conditions,Clouds,dailyrainin,SoftwareType,DateUTC
2013-06-07 00:01:00,70.0,65.0,29.91,ENE,61,0.0,-999.0,84,-99.99,,,0.46,weatherlink.com 1.10,2013-06-07 05:01:00,
2013-06-07 00:16:00,69.5,65.0,29.91,ENE,61,0.0,-999.0,85,-99.99,,,0.46,weatherlink.com 1.10,2013-06-07 05:16:00,
2013-06-07 01:01:00,69.4,65.0,29.91,ENE,62,0.0,-999.0,85,-99.99,,,0.00,weatherlink.com 1.10,2013-06-07 06:01:00,
2013-06-07 01:16:00,69.0,64.0,29.92,ENE,62,0.0,-999.0,85,-99.99,,,0.00,weatherlink.com 1.10,2013-06-07 06:16:00,
2013-06-07 01:31:00,68.6,64.0,29.92,ENE,61,0.0,-999.0,86,-99.99,,,0.00,weatherlink.com 1.10,2013-06-07 06:31:00,
2013-06-07 02:01:00,67.9,64.0,29.91,ENE,61,0.0,-999.0,86,-99.99,,,0.00,weatherlink.com 1.10,2013-06-07 07:01:00,
2013-06-07 02:16:00,67.7,63.0,29.91,ENE,61,0.0,-999.0,86,-99.99,,,0.00,weatherlink.com 1.10,2013-06-07 07:16:00,
2013-06-07 02:31:00,67.4,63.0,29.91,ENE,62,0.0,-999.0,86,-99.99,,,0.00,weatherlink.com 1.10,2013-06-07 07:31:00,
2013-06-07 02:46:00,67.0,63.0,29.91,ENE,63,0.0,-999.0,87,-99.99,,,0.00,weatherlink.com 1.10,2013-06-07 07:46:00,
2013-06-07 03:01:00,66.7,63.0,29.91,ENE,57,0.0,-999.0,88,-99.99,,,0.00,weatherlink.com 1.10,2013-06-07 08:01:00,
2013-06-07 03:16:00,66.3,63.0,29.91,ENE,57,0.0,-999.0,89,-99.99,,,0.00,weatherlink.com 1.10,2013-06-07 08:16:00,
2013-06-07 03:31:00,66.1,63.0,29.91,ENE,58,0.0,-999.0,89,-99.99,,,0.00,weatherlink.com 1.10,2013-06-07 08:31:00,
2013-06-07 03:46:00,65.9,63.0,29.91,NE,45,0.0,-999.0,89,-99.99,,,0.00,weatherlink.com 1.10,2013-06-07 08:46:00,
2013-06-07 04:01:00,65.6,62.0,29.91,NE,46,0.0,-999.0,89,-99.99,,,0.00,weatherlink.com 1.10,2013-06-07 09:01:00,
2013-06-07 04:16:00,65.3,62.0,29.91,NE,45,0.0,-999.0,89,-99.99,,,0.00,weatherlink.com 1.10,2013-06-07 09:16:00,
2013-06-07 04:32:00,65.2,62.0,29.91,NE,42,1.0,-999.0,89,-99.99,,,0.00,weatherlink.com 1.10,2013-06-07 09:32:00,
2013-06-07 04:46:00,65.0,62.0,29.91,WNW,292,0.0,-999.0,89,-99.99,,,0.00,weatherlink.com 1.10,2013-06-07 09:46:00,
2013-06-07 05:01:00,64.6,62.0,29.91,WNW,290,0.0,-999.0,90,-99.99,,,0.00,weatherlink.com 1.10,2013-06-07 10:01:00,
2013-06-07 05:16:00,64.3,61.0,29.91,WNW,290,1.0,-999.0,90,-99.99,,,0.00,weatherlink.com 1.10,2013-06-07 10:16:00,
2013-06-07 05:31:00,64.1,61.0,29.92,West,276,0.0,-999.0,90,-99.99,,,0.00,weatherlink.com 1.10,2013-06-07 10:31:00,
2013-06-07 05:46:00,64.0,61.0,29.92,West,276,0.0,-999.0,90,-99.99,,,0.00,weatherlink.com 1.10,2013-06-07 10:46:00,
2013-06-07 06:01:00,64.0,61.0,29.92,West,276,0.0,-999.0,90,-99.99,,,0.00,weatherlink.com 1.10,2013-06-07 11:01:00,
2013-06-07 06:17:00,64.0,61.0,29.92,West,276,0.0,-999.0,89,-99.99,,,0.00,weatherlink.com 1.10,2013-06-07 11:17:00,
2013-06-07 06:32:00,64.0,61.0,29.93,West,273,0.0,-999.0,89,-99.99,,,0.00,weatherlink.com 1.10,2013-06-07 11:32:00,
2013-06-07 06:47:00,64.1,61.0,29.93,West,272,0.0,-999.0,89,-99.99,,,0.00,weatherlink.com 1.10,2013-06-07 11:47:00,
2013-06-07 07:02:00,64.8,61.0,29.94,West,272,0.0,-999.0,88,-99.99,,,0.00,weatherlink.com 1.10,2013-06-07 12:02:00,
2013-06-07 07:17:00,65.4,61.0,29.94,West,272,0.0,-999.0,86,-99.99,,,0.00,weatherlink.com 1.10,2013-06-07 12:17:00,
2013-06-07 07:32:00,66.3,62.0,29.94,West,272,0.0,-999.0,86,-99.99,,,0.00,weatherlink.com 1.10,2013-06-07 12:32:00,
2013-06-07 07:47:00,66.9,62.0,29.94,West,273,0.0,-999.0,85,-99.99,,,0.00,weatherlink.com 1.10,2013-06-07 12:47:00,
2013-06-07 08:02:00,68.8,64.0,29.94,NE,42,0.0,-999.0,83,-99.99,,,0.00,weatherlink.com 1.10,2013-06-07 13:02:00,
2013-06-07 08:17:00,70.7,62.0,29.94,ENE,63,0.0,-999.0,75,-99.99,,,0.00,weatherlink.com 1.10,2013-06-07 13:17:00,
2013-06-07 08:32:00,71.3,62.0,29.94,ENE,67,0.0,-999.0,73,-99.99,,,0.00,weatherlink.com 1.10,2013-06-07 13:32:00,
2013-06-07 08:47:00,72.8,62.0,29.94,ENE,59,0.0,-999.0,69,-99.99,,,0.00,weatherlink.com 1.10,2013-06-07 13:47:00,
2013-06-07 09:02:00,73.3,59.0,29.95,NE,40,0.0,-999.0,62,-99.99,,,0.00,weatherlink.com 1.10,2013-06-07 14:02:00,
2013-06-07 09:17:00,74.9,60.0,29.95,East,98,0.0,-999.0,61,-99.99,,,0.00,weatherlink.com 1.10,2013-06-07 14:17:00,
2013-06-07 09:32:00,75.7,58.0,29.96,ESE,117,0.0,-999.0,55,-99.99,,,0.00,weatherlink.com 1.10,2013-06-07 14:32:00,
2013-06-07 09:47:00,75.8,58.0,29.97,East,99,0.0,-999.0,55,-99.99,,,0.00,weatherlink.com 1.10,2013-06-07 14:47:00,
2013-06-07 10:02:00,76.6,57.0,29.97,ESE,122,0.0,-999.0,51,-99.99,,,0.00,weatherlink.com 1.10,2013-06-07 15:02:00,
2013-06-07 10:17:00,77.4,57.0,29.97,ENE,78,0.0,-999.0,50,-99.99,,,0.00,weatherlink.com 1.10,2013-06-07 15:17:00,
2013-06-07 10:32:00,77.9,57.0,29.98,East,98,0.0,-999.0,48,-99.99,,,0.00,weatherlink.com 1.10,2013-06-07 15:32:00,
2013-06-07 10:47:00,77.6,56.0,29.98,East,82,0.0,-999.0,47,-99.99,,,0.00,weatherlink.com 1.10,2013-06-07 15:47:00,
2013-06-07 11:02:00,77.9,56.0,29.98,NW,317,0.0,-999.0,47,-99.99,,,0.00,weatherlink.com 1.10,2013-06-07 16:02:00,
2013-06-07 11:17:00,79.2,58.0,29.98,ENE,71,0.0,-999.0,48,-99.99,,,0.00,weatherlink.com 1.10,2013-06-07 16:17:00,
2013-06-07 11:32:00,80.0,57.0,29.97,NE,40,0.0,-999.0,46,-99.99,,,0.00,weatherlink.com 1.10,2013-06-07 16:32:00,
2013-06-07 11:47:00,79.5,56.0,29.97,West,277,0.0,-999.0,45,-99.99,,,0.00,weatherlink.com 1.10,2013-06-07 16:47:00,
2013-06-07 12:02:00,79.3,57.0,29.97,ENE,75,0.0,-999.0,46,-99.99,,,0.00,weatherlink.com 1.10,2013-06-07 17:02:00,
2013-06-07 12:17:00,80.1,56.0,29.96,ESE,119,0.0,-999.0,43,-99.99,,,0.00,weatherlink.com 1.10,2013-06-07 17:17:00,
2013-06-07 12:32:00,80.5,57.0,29.95,East,82,0.0,-999.0,45,-99.99,,,0.00,weatherlink.com 1.10,2013-06-07 17:32:00,
2013-06-07 12:47:00,80.3,56.0,29.95,ESE,116,0.0,-999.0,44,-99.99,,,0.00,weatherlink.com 1.10,2013-06-07 17:47:00,
2013-06-07 13:02:00,80.5,56.0,29.94,NE,49,0.0,-999.0,43,-99.99,,,0.00,weatherlink.com 1.10,2013-06-07 18:02:00,
2013-06-07 13:17:00,81.1,56.0,29.93,NE,39,3.0,-999.0,42,-99.99,,,0.00,weatherlink.com 1.10,2013-06-07 18:17:00,
2013-06-07 13:32:00,81.9,55.0,29.93,WSW,257,0.0,-999.0,39,-99.99,,,0.00,weatherlink.com 1.10,2013-06-07 18:32:00,
2013-06-07 13:47:00,82.4,55.0,29.92,NE,42,0.0,-999.0,39,-99.99,,,0.00,weatherlink.com 1.10,2013-06-07 18:47:00,
2013-06-07 14:02:00,82.1,53.0,29.92,NE,44,0.0,-999.0,37,-99.99,,,0.00,weatherlink.com 1.10,2013-06-07 19:02:00,
2013-06-07 15:03:00,82.6,53.0,29.91,NE,41,0.0,-999.0,36,-99.99,,,0.00,weatherlink.com 1.10,2013-06-07 20:03:00,
2013-06-07 15:18:00,83.9,55.0,29.91,ENE,68,4.0,-999.0,37,-99.99,,,0.00,weatherlink.com 1.10,2013-06-07 20:18:00,
2013-06-07 15:33:00,83.6,54.0,29.90,East,82,0.0,-999.0,36,-99.99,,,0.00,weatherlink.com 1.10,2013-06-07 20:33:00,
2013-06-07 15:48:00,83.8,55.0,29.90,NE,54,0.0,-999.0,37,-99.99,,,0.00,weatherlink.com 1.10,2013-06-07 20:48:00,
2013-06-07 16:03:00,84.2,57.0,29.90,ESE,114,0.0,-999.0,40,-99.99,,,0.00,weatherlink.com 1.10,2013-06-07 21:03:00,
2013-06-07 16:18:00,84.3,55.0,29.90,ENE,65,4.0,-999.0,37,-99.99,,,0.00,weatherlink.com 1.10,2013-06-07 21:18:00,
2013-06-07 16:48:00,84.1,54.0,29.89,ENE,67,0.0,-999.0,36,-99.99,,,0.00,weatherlink.com 1.10,2013-06-07 21:48:00,
2013-06-07 17:03:00,83.7,55.0,29.89,ESE,109,1.0,-999.0,38,-99.99,,,0.00,weatherlink.com 1.10,2013-06-07 22:03:00,
2013-06-07 17:33:00,83.1,55.0,29.88,ENE,75,2.0,-999.0,38,-99.99,,,0.00,weatherlink.com 1.10,2013-06-07 22:33:00,
2013-06-07 17:48:00,82.5,55.0,29.87,NE,46,0.0,-999.0,39,-99.99,,,0.00,weatherlink.com 1.10,2013-06-07 22:48:00,
2013-06-07 18:03:00,82.8,55.0,29.87,NE,46,0.0,-999.0,39,-99.99,,,0.00,weatherlink.com 1.10,2013-06-07 23:03:00,
2013-06-07 18:18:00,82.6,56.0,29.87,NE,49,0.0,-999.0,40,-99.99,,,0.00,weatherlink.com 1.10,2013-06-07 23:18:00,
2013-06-07 18:33:00,82.2,56.0,29.86,ENE,57,0.0,-999.0,40,-99.99,,,0.00,weatherlink.com 1.10,2013-06-07 23:33:00,
2013-06-07 18:48:00,82.1,55.0,29.87,NE,49,0.0,-999.0,39,-99.99,,,0.00,weatherlink.com 1.10,2013-06-07 23:48:00,
2013-06-07 19:03:00,82.3,56.0,29.86,ENE,72,0.0,-999.0,40,-99.99,,,0.00,weatherlink.com 1.10,2013-06-08 00:03:00,
2013-06-07 19:18:00,81.5,56.0,29.86,ENE,63,0.0,-999.0,41,-99.99,,,0.00,weatherlink.com 1.10,2013-06-08 00:18:00,
2013-06-07 19:33:00,81.4,56.0,29.86,ENE,72,0.0,-999.0,42,-99.99,,,0.00,weatherlink.com 1.10,2013-06-08 00:33:00,
2013-06-07 19:48:00,80.1,56.0,29.85,ENE,71,0.0,-999.0,43,-99.99,,,0.00,weatherlink.com 1.10,2013-06-08 00:48:00,
2013-06-07 20:03:00,79.5,56.0,29.86,ENE,64,0.0,-999.0,45,-99.99,,,0.00,weatherlink.com 1.10,2013-06-08 01:03:00,
2013-06-07 20:33:00,78.5,57.0,29.86,East,83,0.0,-999.0,47,-99.99,,,0.00,weatherlink.com 1.10,2013-06-08 01:33:00,
2013-06-07 20:48:00,77.7,56.0,29.86,East,83,0.0,-999.0,48,-99.99,,,0.00,weatherlink.com 1.10,2013-06-08 01:48:00,
2013-06-07 21:18:00,76.9,57.0,29.87,ENE,67,0.0,-999.0,50,-99.99,,,0.00,weatherlink.com 1.10,2013-06-08 02:18:00,
2013-06-07 21:48:00,75.8,57.0,29.87,ENE,67,0.0,-999.0,53,-99.99,,,0.00,weatherlink.com 1.10,2013-06-08 02:48:00,
2013-06-07 22:03:00,75.2,57.0,29.88,ENE,67,0.0,-999.0,54,-99.99,,,0.00,weatherlink.com 1.10,2013-06-08 03:03:00,
2013-06-07 22:33:00,74.1,58.0,29.90,ENE,67,0.0,-999.0,57,-99.99,,,0.00,weatherlink.com 1.10,2013-06-08 03:33:00,
2013-06-07 22:48:00,73.5,58.0,29.91,ENE,67,0.0,-999.0,59,-99.99,,,0.00,weatherlink.com 1.10,2013-06-08 03:48:00,
2013-06-07 23:03:00,72.3,58.0,29.91,ENE,67,0.0,-999.0,62,-99.99,,,0.00,weatherlink.com 1.10,2013-06-08 04:03:00,
2013-06-07 23:18:00,71.8,58.0,29.91,ENE,67,0.0,-999.0,63,-99.99,,,0.00,weatherlink.com 1.10,2013-06-08 04:18:00,
2013-06-07 23:33:00,71.0,59.0,29.90,ENE,67,0.0,-999.0,65,-99.99,,,0.00,weatherlink.com 1.10,2013-06-08 04:33:00,
2013-06-07 23:48:00,70.7,58.0,29.89,ENE,67,0.0,-999.0,65,-99.99,,,0.00,weatherlink.com 1.10,2013-06-08 04:48:00,